sensor_id;sensor_type;location;lat;lon;timestamp;pressure;altitude;pressure_sealevel;temperature;humidity
43814;BME280;29669;55.706;37.656;2024-01-11T00:01:50;98229.13;;;-4.63;72.91
43814;BME280;29669;55.706;37.656;2024-01-11T00:04:17;98227.22;;;-4.60;73.01
43814;BME280;29669;55.706;37.656;2024-01-11T00:06:45;98214.09;;;-4.54;72.97
43814;BME280;29669;55.706;37.656;2024-01-11T00:09:15;98203.78;;;-4.51;73.13
43814;BME280;29669;55.706;37.656;2024-01-11T00:11:43;98195.94;;;-4.48;72.95
43814;BME280;29669;55.706;37.656;2024-01-11T00:14:11;98193.69;;;-4.40;73.12
43814;BME280;29669;55.706;37.656;2024-01-11T00:16:38;98180.81;;;-4.37;73.15
43814;BME280;29669;55.706;37.656;2024-01-11T00:19:06;98166.81;;;-4.30;72.93
43814;BME280;29669;55.706;37.656;2024-01-11T00:21:34;98156.22;;;-4.24;73.04
43814;BME280;29669;55.706;37.656;2024-01-11T00:24:05;98145.88;;;-4.21;72.97
43814;BME280;29669;55.706;37.656;2024-01-11T00:26:33;98134.25;;;-4.12;73.14
43814;BME280;29669;55.706;37.656;2024-01-11T00:29:00;98125.75;;;-4.11;72.78
43814;BME280;29669;55.706;37.656;2024-01-11T00:31:28;98114.56;;;-4.09;72.84
43814;BME280;29669;55.706;37.656;2024-01-11T00:33:55;98121.16;;;-4.06;72.80
43814;BME280;29669;55.706;37.656;2024-01-11T00:36:23;98100.69;;;-4.03;72.93
43814;BME280;29669;55.706;37.656;2024-01-11T00:38:51;98091.13;;;-4.00;73.13
43814;BME280;29669;55.706;37.656;2024-01-11T00:41:18;98078.22;;;-3.97;73.17
43814;BME280;29669;55.706;37.656;2024-01-11T00:43:46;98065.09;;;-4.02;73.22
43814;BME280;29669;55.706;37.656;2024-01-11T00:46:14;98065.53;;;-3.97;73.14
43814;BME280;29669;55.706;37.656;2024-01-11T00:48:42;98062.09;;;-3.96;73.25
43814;BME280;29669;55.706;37.656;2024-01-11T00:51:10;98056.78;;;-3.93;73.26
43814;BME280;29669;55.706;37.656;2024-01-11T00:53:37;98050.56;;;-3.89;73.35
43814;BME280;29669;55.706;37.656;2024-01-11T00:56:05;98041.13;;;-3.87;73.18
43814;BME280;29669;55.706;37.656;2024-01-11T00:58:33;98036.50;;;-3.82;73.34
43814;BME280;29669;55.706;37.656;2024-01-11T01:01:00;98026.03;;;-3.77;73.39
43814;BME280;29669;55.706;37.656;2024-01-11T01:03:28;98010.59;;;-3.74;73.52
43814;BME280;29669;55.706;37.656;2024-01-11T01:05:56;98002.66;;;-3.69;73.34
43814;BME280;29669;55.706;37.656;2024-01-11T01:08:24;98000.31;;;-3.61;73.53
43814;BME280;29669;55.706;37.656;2024-01-11T01:10:51;97991.53;;;-3.57;73.42
43814;BME280;29669;55.706;37.656;2024-01-11T01:13:19;97982.66;;;-3.52;73.36
43814;BME280;29669;55.706;37.656;2024-01-11T01:15:47;97962.59;;;-3.44;73.39
43814;BME280;29669;55.706;37.656;2024-01-11T01:18:15;97971.31;;;-3.37;73.45
43814;BME280;29669;55.706;37.656;2024-01-11T01:20:43;97964.72;;;-3.28;73.28
43814;BME280;29669;55.706;37.656;2024-01-11T01:23:11;97939.78;;;-3.23;73.24
43814;BME280;29669;55.706;37.656;2024-01-11T01:25:39;97937.25;;;-3.23;73.12
43814;BME280;29669;55.706;37.656;2024-01-11T01:28:06;97922.72;;;-3.21;73.43
43814;BME280;29669;55.706;37.656;2024-01-11T01:30:34;97924.34;;;-3.20;73.54
43814;BME280;29669;55.706;37.656;2024-01-11T01:33:02;97912.84;;;-3.24;73.43
43814;BME280;29669;55.706;37.656;2024-01-11T01:35:30;97908.19;;;-3.19;73.56
43814;BME280;29669;55.706;37.656;2024-01-11T01:37:57;97898.22;;;-3.11;73.44
43814;BME280;29669;55.706;37.656;2024-01-11T01:40:25;97878.84;;;-3.12;73.58
43814;BME280;29669;55.706;37.656;2024-01-11T01:42:58;97885.75;;;-3.03;73.65
43814;BME280;29669;55.706;37.656;2024-01-11T01:45:26;97883.06;;;-3.02;73.42
43814;BME280;29669;55.706;37.656;2024-01-11T01:47:55;97864.81;;;-2.96;73.66
43814;BME280;29669;55.706;37.656;2024-01-11T01:50:23;97864.69;;;-2.94;73.83
43814;BME280;29669;55.706;37.656;2024-01-11T01:52:51;97854.81;;;-2.88;73.74
43814;BME280;29669;55.706;37.656;2024-01-11T01:55:19;97837.50;;;-2.82;73.51
43814;BME280;29669;55.706;37.656;2024-01-11T01:57:48;97831.78;;;-2.75;73.63
43814;BME280;29669;55.706;37.656;2024-01-11T02:00:17;97828.75;;;-2.69;73.76
43814;BME280;29669;55.706;37.656;2024-01-11T02:02:46;97820.47;;;-2.61;73.94
43814;BME280;29669;55.706;37.656;2024-01-11T02:05:18;97813.81;;;-2.53;73.89
43814;BME280;29669;55.706;37.656;2024-01-11T02:07:46;97796.19;;;-2.45;73.75
43814;BME280;29669;55.706;37.656;2024-01-11T02:10:13;97783.91;;;-2.40;73.93
43814;BME280;29669;55.706;37.656;2024-01-11T02:12:41;97784.47;;;-2.27;73.82
43814;BME280;29669;55.706;37.656;2024-01-11T02:15:09;97771.22;;;-2.21;73.68
43814;BME280;29669;55.706;37.656;2024-01-11T02:17:40;97778.34;;;-2.15;73.70
43814;BME280;29669;55.706;37.656;2024-01-11T02:20:09;97762.56;;;-2.09;73.82
43814;BME280;29669;55.706;37.656;2024-01-11T02:22:40;97765.34;;;-2.02;73.87
43814;BME280;29669;55.706;37.656;2024-01-11T02:25:08;97742.09;;;-1.98;73.97
43814;BME280;29669;55.706;37.656;2024-01-11T02:27:49;97745.44;;;-1.87;73.83
43814;BME280;29669;55.706;37.656;2024-01-11T02:30:17;97742.91;;;-1.87;74.04
43814;BME280;29669;55.706;37.656;2024-01-11T02:32:48;97719.22;;;-1.88;74.03
43814;BME280;29669;55.706;37.656;2024-01-11T02:35:18;97726.41;;;-1.83;74.08
43814;BME280;29669;55.706;37.656;2024-01-11T02:37:46;97719.59;;;-1.83;74.17
43814;BME280;29669;55.706;37.656;2024-01-11T02:40:14;97711.44;;;-1.77;74.19
43814;BME280;29669;55.706;37.656;2024-01-11T02:42:45;97699.91;;;-1.71;74.45
43814;BME280;29669;55.706;37.656;2024-01-11T02:45:13;97684.25;;;-1.67;74.37
43814;BME280;29669;55.706;37.656;2024-01-11T02:47:41;97687.97;;;-1.61;74.40
43814;BME280;29669;55.706;37.656;2024-01-11T02:50:09;97691.03;;;-1.58;74.46
43814;BME280;29669;55.706;37.656;2024-01-11T02:52:36;97680.19;;;-1.50;74.43
43814;BME280;29669;55.706;37.656;2024-01-11T02:55:04;97673.88;;;-1.46;74.55
43814;BME280;29669;55.706;37.656;2024-01-11T02:57:32;97668.66;;;-1.45;74.57
43814;BME280;29669;55.706;37.656;2024-01-11T03:00:00;97662.19;;;-1.39;74.43
43814;BME280;29669;55.706;37.656;2024-01-11T03:02:30;97649.06;;;-1.35;74.74
43814;BME280;29669;55.706;37.656;2024-01-11T03:04:58;97645.41;;;-1.32;74.66
43814;BME280;29669;55.706;37.656;2024-01-11T03:07:26;97644.06;;;-1.27;74.92
43814;BME280;29669;55.706;37.656;2024-01-11T03:09:54;97640.69;;;-1.18;74.90
43814;BME280;29669;55.706;37.656;2024-01-11T03:12:22;97642.00;;;-1.14;75.12
43814;BME280;29669;55.706;37.656;2024-01-11T03:14:49;97639.69;;;-1.07;75.37
43814;BME280;29669;55.706;37.656;2024-01-11T03:17:17;97630.53;;;-1.00;75.37
43814;BME280;29669;55.706;37.656;2024-01-11T03:19:45;97628.53;;;-0.97;75.40
43814;BME280;29669;55.706;37.656;2024-01-11T03:22:13;97615.34;;;-0.92;75.81
43814;BME280;29669;55.706;37.656;2024-01-11T03:24:41;97609.69;;;-0.86;75.83
43814;BME280;29669;55.706;37.656;2024-01-11T03:27:09;97606.41;;;-0.78;75.95
43814;BME280;29669;55.706;37.656;2024-01-11T03:29:37;97597.03;;;-0.78;76.10
43814;BME280;29669;55.706;37.656;2024-01-11T03:32:05;97598.34;;;-0.74;76.34
43814;BME280;29669;55.706;37.656;2024-01-11T03:34:33;97584.22;;;-0.68;76.63
43814;BME280;29669;55.706;37.656;2024-01-11T03:37:01;97580.56;;;-0.66;76.88
43814;BME280;29669;55.706;37.656;2024-01-11T03:39:29;97580.00;;;-0.60;76.85
43814;BME280;29669;55.706;37.656;2024-01-11T03:41:57;97578.44;;;-0.53;77.12
43814;BME280;29669;55.706;37.656;2024-01-11T03:44:24;97564.78;;;-0.52;77.07
43814;BME280;29669;55.706;37.656;2024-01-11T03:46:52;97554.78;;;-0.45;77.35
43814;BME280;29669;55.706;37.656;2024-01-11T03:49:20;97564.53;;;-0.41;77.14
43814;BME280;29669;55.706;37.656;2024-01-11T03:51:48;97555.50;;;-0.35;77.14
43814;BME280;29669;55.706;37.656;2024-01-11T03:54:16;97556.81;;;-0.31;77.14
43814;BME280;29669;55.706;37.656;2024-01-11T03:56:44;97554.09;;;-0.30;77.28
43814;BME280;29669;55.706;37.656;2024-01-11T03:59:12;97552.06;;;-0.26;77.21
43814;BME280;29669;55.706;37.656;2024-01-11T04:01:40;97540.59;;;-0.22;77.11
43814;BME280;29669;55.706;37.656;2024-01-11T04:04:10;97556.78;;;-0.14;77.88
43814;BME280;29669;55.706;37.656;2024-01-11T04:06:38;97559.97;;;-0.12;77.75
43814;BME280;29669;55.706;37.656;2024-01-11T04:09:06;97537.97;;;-0.13;77.91
43814;BME280;29669;55.706;37.656;2024-01-11T04:11:34;97523.16;;;-0.09;77.80
43814;BME280;29669;55.706;37.656;2024-01-11T04:14:25;97545.81;;;-0.06;77.75
43814;BME280;29669;55.706;37.656;2024-01-11T04:29:08;97517.63;;;-0.05;78.03
43814;BME280;29669;55.706;37.656;2024-01-11T04:31:50;97512.69;;;0.02;77.86
43814;BME280;29669;55.706;37.656;2024-01-11T04:34:19;97528.81;;;0.03;78.08
43814;BME280;29669;55.706;37.656;2024-01-11T04:37:06;97519.91;;;0.07;78.10
43814;BME280;29669;55.706;37.656;2024-01-11T04:40:31;97508.91;;;0.06;78.23
43814;BME280;29669;55.706;37.656;2024-01-11T04:43:46;97508.13;;;0.06;78.32
43814;BME280;29669;55.706;37.656;2024-01-11T04:46:18;97507.81;;;0.09;78.35
43814;BME280;29669;55.706;37.656;2024-01-11T04:48:54;97496.00;;;0.08;78.52
43814;BME280;29669;55.706;37.656;2024-01-11T04:51:31;97496.63;;;0.10;78.49
43814;BME280;29669;55.706;37.656;2024-01-11T04:54:15;97489.63;;;0.12;78.72
43814;BME280;29669;55.706;37.656;2024-01-11T04:57:09;97488.38;;;0.16;78.46
43814;BME280;29669;55.706;37.656;2024-01-11T04:59:54;97490.75;;;0.17;78.68
43814;BME280;29669;55.706;37.656;2024-01-11T05:02:37;97474.38;;;0.20;78.51
43814;BME280;29669;55.706;37.656;2024-01-11T05:05:28;97477.72;;;0.20;78.68
43814;BME280;29669;55.706;37.656;2024-01-11T05:08:10;97472.31;;;0.23;78.60
43814;BME280;29669;55.706;37.656;2024-01-11T05:10:48;97473.91;;;0.24;78.64
43814;BME280;29669;55.706;37.656;2024-01-11T05:13:16;97466.25;;;0.24;78.38
43814;BME280;29669;55.706;37.656;2024-01-11T05:15:45;97452.38;;;0.27;78.60
43814;BME280;29669;55.706;37.656;2024-01-11T05:18:13;97452.38;;;0.27;78.72
43814;BME280;29669;55.706;37.656;2024-01-11T05:20:41;97463.41;;;0.27;78.72
43814;BME280;29669;55.706;37.656;2024-01-11T05:23:09;97449.53;;;0.30;78.77
43814;BME280;29669;55.706;37.656;2024-01-11T05:25:37;97449.53;;;0.30;78.44
43814;BME280;29669;55.706;37.656;2024-01-11T05:28:05;97447.00;;;0.30;78.74
43814;BME280;29669;55.706;37.656;2024-01-11T05:30:44;97439.34;;;0.38;78.86
43814;BME280;29669;55.706;37.656;2024-01-11T05:33:25;97440.00;;;0.40;78.72
43814;BME280;29669;55.706;37.656;2024-01-11T05:38:54;97436.31;;;0.42;78.63
43814;BME280;29669;55.706;37.656;2024-01-11T05:41:43;97431.22;;;0.42;78.62
43814;BME280;29669;55.706;37.656;2024-01-11T05:44:20;97437.13;;;0.43;78.34
43814;BME280;29669;55.706;37.656;2024-01-11T05:47:05;97423.09;;;0.39;78.51
43814;BME280;29669;55.706;37.656;2024-01-11T05:49:39;97417.53;;;0.43;78.60
43814;BME280;29669;55.706;37.656;2024-01-11T05:52:15;97424.69;;;0.48;78.66
43814;BME280;29669;55.706;37.656;2024-01-11T05:54:53;97420.72;;;0.53;78.76
43814;BME280;29669;55.706;37.656;2024-01-11T05:57:30;97418.81;;;0.55;78.66
43814;BME280;29669;55.706;37.656;2024-01-11T06:00:04;97414.84;;;0.53;78.44
43814;BME280;29669;55.706;37.656;2024-01-11T06:02:41;97420.72;;;0.53;78.70
43814;BME280;29669;55.706;37.656;2024-01-11T06:05:11;97406.19;;;0.54;78.54
43814;BME280;29669;55.706;37.656;2024-01-11T06:07:43;97412.75;;;0.56;78.79
43814;BME280;29669;55.706;37.656;2024-01-11T06:10:15;97415.31;;;0.56;78.97
43814;BME280;29669;55.706;37.656;2024-01-11T06:12:47;97403.03;;;0.60;78.91
43814;BME280;29669;55.706;37.656;2024-01-11T06:15:22;97400.00;;;0.56;78.94
43814;BME280;29669;55.706;37.656;2024-01-11T06:17:54;97402.88;;;0.61;78.85
43814;BME280;29669;55.706;37.656;2024-01-11T06:20:37;97395.22;;;0.61;78.96
43814;BME280;29669;55.706;37.656;2024-01-11T06:23:19;97397.78;;;0.69;78.85
43814;BME280;29669;55.706;37.656;2024-01-11T06:26:04;97387.56;;;0.69;78.90
43814;BME280;29669;55.706;37.656;2024-01-11T06:28:39;97390.91;;;0.70;78.51
43814;BME280;29669;55.706;37.656;2024-01-11T06:31:09;97387.56;;;0.69;78.69
43814;BME280;29669;55.706;37.656;2024-01-11T06:33:39;97395.69;;;0.73;79.02
43814;BME280;29669;55.706;37.656;2024-01-11T06:36:07;97389.78;;;0.72;78.84
43814;BME280;29669;55.706;37.656;2024-01-11T06:38:36;97391.56;;;0.72;78.90
43814;BME280;29669;55.706;37.656;2024-01-11T06:41:04;97386.59;;;0.70;78.90
43814;BME280;29669;55.706;37.656;2024-01-11T06:43:53;97396.97;;;0.77;79.18
43814;BME280;29669;55.706;37.656;2024-01-11T06:46:26;97383.25;;;0.78;79.02
43814;BME280;29669;55.706;37.656;2024-01-11T06:48:57;97371.44;;;0.77;78.93
43814;BME280;29669;55.706;37.656;2024-01-11T06:51:25;97377.19;;;0.79;79.04
43814;BME280;29669;55.706;37.656;2024-01-11T06:53:55;97372.09;;;0.87;78.91
43814;BME280;29669;55.706;37.656;2024-01-11T06:56:23;97378.44;;;0.91;78.85
43814;BME280;29669;55.706;37.656;2024-01-11T06:58:51;97387.72;;;0.92;78.74
43814;BME280;29669;55.706;37.656;2024-01-11T07:01:19;97372.69;;;0.97;78.78
43814;BME280;29669;55.706;37.656;2024-01-11T07:03:48;97387.38;;;1.03;78.74
43814;BME280;29669;55.706;37.656;2024-01-11T07:06:17;97379.56;;;1.05;78.64
43814;BME280;29669;55.706;37.656;2024-01-11T07:08:45;97378.09;;;1.10;78.68
43814;BME280;29669;55.706;37.656;2024-01-11T07:11:13;97374.63;;;1.11;78.47
43814;BME280;29669;55.706;37.656;2024-01-11T07:13:41;97357.03;;;1.16;78.50
43814;BME280;29669;55.706;37.656;2024-01-11T07:16:10;97359.28;;;1.19;78.42
43814;BME280;29669;55.706;37.656;2024-01-11T07:18:42;97354.78;;;1.21;78.30
43814;BME280;29669;55.706;37.656;2024-01-11T07:21:20;97343.78;;;1.21;78.25
43814;BME280;29669;55.706;37.656;2024-01-11T07:23:48;97350.31;;;1.23;78.18
43814;BME280;29669;55.706;37.656;2024-01-11T07:26:16;97334.84;;;1.25;78.28
43814;BME280;29669;55.706;37.656;2024-01-11T07:28:44;97352.22;;;1.29;78.19
43814;BME280;29669;55.706;37.656;2024-01-11T07:31:12;97350.16;;;1.25;78.04
43814;BME280;29669;55.706;37.656;2024-01-11T07:33:39;97349.53;;;1.23;78.15
43814;BME280;29669;55.706;37.656;2024-01-11T07:36:07;97339.47;;;1.13;78.35
43814;BME280;29669;55.706;37.656;2024-01-11T07:38:36;97336.44;;;1.18;78.49
43814;BME280;29669;55.706;37.656;2024-01-11T07:41:04;97336.44;;;1.18;78.45
43814;BME280;29669;55.706;37.656;2024-01-11T07:43:32;97335.13;;;1.22;78.65
43814;BME280;29669;55.706;37.656;2024-01-11T07:46:20;97329.56;;;1.18;78.48
43814;BME280;29669;55.706;37.656;2024-01-11T07:49:03;97324.13;;;1.21;78.75
43814;BME280;29669;55.706;37.656;2024-01-11T07:51:31;97327.47;;;1.30;78.42
43814;BME280;29669;55.706;37.656;2024-01-11T07:53:58;97319.59;;;1.39;78.34
43814;BME280;29669;55.706;37.656;2024-01-11T07:56:26;97309.66;;;1.52;78.31
43814;BME280;29669;55.706;37.656;2024-01-11T07:58:54;97304.16;;;1.63;77.95
43814;BME280;29669;55.706;37.656;2024-01-11T08:01:21;97298.09;;;1.64;77.72
43814;BME280;29669;55.706;37.656;2024-01-11T08:03:49;97301.16;;;1.60;77.47
43814;BME280;29669;55.706;37.656;2024-01-11T08:06:20;97303.72;;;1.60;77.70
43814;BME280;29669;55.706;37.656;2024-01-11T08:08:47;97304.69;;;1.59;77.68
43814;BME280;29669;55.706;37.656;2024-01-11T08:11:20;97301.31;;;1.58;77.75
43814;BME280;29669;55.706;37.656;2024-01-11T08:13:48;97300.97;;;1.61;77.98
43814;BME280;29669;55.706;37.656;2024-01-11T08:16:19;97285.97;;;1.58;77.67
43814;BME280;29669;55.706;37.656;2024-01-11T08:18:46;97277.41;;;1.51;77.87
43814;BME280;29669;55.706;37.656;2024-01-11T08:21:16;97284.56;;;1.48;77.94
43814;BME280;29669;55.706;37.656;2024-01-11T08:23:43;97295.94;;;1.45;77.98
43814;BME280;29669;55.706;37.656;2024-01-11T08:26:14;97280.28;;;1.40;78.07
43814;BME280;29669;55.706;37.656;2024-01-11T08:28:42;97285.28;;;1.42;78.34
43814;BME280;29669;55.706;37.656;2024-01-11T08:31:10;97279.34;;;1.41;78.23
43814;BME280;29669;55.706;37.656;2024-01-11T08:33:38;97278.53;;;1.41;78.43
43814;BME280;29669;55.706;37.656;2024-01-11T08:36:06;97276.16;;;1.39;78.46
43814;BME280;29669;55.706;37.656;2024-01-11T08:38:34;97280.28;;;1.40;78.38
43814;BME280;29669;55.706;37.656;2024-01-11T08:41:03;97291.66;;;1.38;78.44
43814;BME280;29669;55.706;37.656;2024-01-11T08:43:37;97276.50;;;1.36;78.54
43814;BME280;29669;55.706;37.656;2024-01-11T08:46:26;97301.56;;;1.33;78.53
43814;BME280;29669;55.706;37.656;2024-01-11T08:49:00;97259.94;;;1.24;78.83
43814;BME280;29669;55.706;37.656;2024-01-11T08:51:51;97256.72;;;1.30;78.89
43814;BME280;29669;55.706;37.656;2024-01-11T08:54:40;97245.06;;;1.28;78.92
43814;BME280;29669;55.706;37.656;2024-01-11T08:57:15;97252.53;;;1.37;78.98
43814;BME280;29669;55.706;37.656;2024-01-11T08:59:47;97239.13;;;1.35;78.86
43814;BME280;29669;55.706;37.656;2024-01-11T09:10:50;97345.91;;;0.45;79.75
43814;BME280;29669;55.706;37.656;2024-01-11T09:17:30;97347.47;;;0.22;80.72
43814;BME280;29669;55.706;37.656;2024-01-11T09:19:58;97381.91;;;0.26;80.65
43814;BME280;29669;55.706;37.656;2024-01-11T09:22:31;97353.19;;;0.16;80.83
43814;BME280;29669;55.706;37.656;2024-01-11T09:25:00;97359.56;;;0.12;80.99
43814;BME280;29669;55.706;37.656;2024-01-11T09:33:31;97385.19;;;0.02;81.28
43814;BME280;29669;55.706;37.656;2024-01-11T09:36:05;97387.63;;;0.04;81.32
43814;BME280;29669;55.706;37.656;2024-01-11T09:38:57;97379.16;;;0.03;81.34
43814;BME280;29669;55.706;37.656;2024-01-11T10:00:23;97433.00;;;-0.08;80.27
43814;BME280;29669;55.706;37.656;2024-01-11T10:02:52;97431.66;;;-0.20;80.10
43814;BME280;29669;55.706;37.656;2024-01-11T10:07:23;97434.78;;;-0.34;79.98
43814;BME280;29669;55.706;37.656;2024-01-11T10:09:52;97445.72;;;-0.42;79.77
43814;BME280;29669;55.706;37.656;2024-01-11T10:12:21;97448.56;;;-0.45;79.70
43814;BME280;29669;55.706;37.656;2024-01-11T10:15:05;97470.50;;;-0.52;79.42
43814;BME280;29669;55.706;37.656;2024-01-11T10:17:34;97454.34;;;-0.60;79.64
43814;BME280;29669;55.706;37.656;2024-01-11T10:20:03;97471.00;;;-0.74;79.34
43814;BME280;29669;55.706;37.656;2024-01-11T10:22:45;97481.56;;;-0.86;79.20
43814;BME280;29669;55.706;37.656;2024-01-11T10:25:45;97500.91;;;-1.11;78.81
43814;BME280;29669;55.706;37.656;2024-01-11T10:35:08;97526.22;;;-1.81;78.80
43814;BME280;29669;55.706;37.656;2024-01-11T10:37:37;97526.41;;;-1.93;78.86
43814;BME280;29669;55.706;37.656;2024-01-11T10:40:10;97534.50;;;-2.07;78.75
43814;BME280;29669;55.706;37.656;2024-01-11T10:42:45;97523.41;;;-2.15;78.79
43814;BME280;29669;55.706;37.656;2024-01-11T10:45:19;97530.91;;;-2.23;78.92
43814;BME280;29669;55.706;37.656;2024-01-11T10:48:02;97554.59;;;-2.23;79.27
43814;BME280;29669;55.706;37.656;2024-01-11T10:50:37;97536.28;;;-2.26;79.56
43814;BME280;29669;55.706;37.656;2024-01-11T10:57:02;97558.19;;;-2.16;80.20
43814;BME280;29669;55.706;37.656;2024-01-11T11:03:08;97571.16;;;-2.19;79.92
43814;BME280;29669;55.706;37.656;2024-01-11T11:05:53;97579.34;;;-2.25;79.84
43814;BME280;29669;55.706;37.656;2024-01-11T11:08:41;97592.19;;;-2.55;79.46
43814;BME280;29669;55.706;37.656;2024-01-11T11:11:53;97606.91;;;-2.68;79.62
43814;BME280;29669;55.706;37.656;2024-01-11T11:14:31;97599.13;;;-2.86;79.61
43814;BME280;29669;55.706;37.656;2024-01-11T11:21:13;97649.25;;;-3.27;79.28
43814;BME280;29669;55.706;37.656;2024-01-11T11:23:44;97654.16;;;-3.45;79.22
43814;BME280;29669;55.706;37.656;2024-01-11T11:26:21;97665.66;;;-3.61;79.13
43814;BME280;29669;55.706;37.656;2024-01-11T11:28:57;97671.06;;;-3.75;78.94
43814;BME280;29669;55.706;37.656;2024-01-11T11:31:45;97686.84;;;-3.93;78.85
43814;BME280;29669;55.706;37.656;2024-01-11T11:34:19;97711.97;;;-4.01;78.89
43814;BME280;29669;55.706;37.656;2024-01-11T11:36:47;97703.84;;;-4.04;78.91
43814;BME280;29669;55.706;37.656;2024-01-11T11:39:22;97722.72;;;-4.08;79.16
43814;BME280;29669;55.706;37.656;2024-01-11T11:41:52;97721.28;;;-4.22;78.61
43814;BME280;29669;55.706;37.656;2024-01-11T11:44:24;97722.81;;;-4.30;78.61
43814;BME280;29669;55.706;37.656;2024-01-11T11:46:53;97732.63;;;-4.37;78.79
43814;BME280;29669;55.706;37.656;2024-01-11T11:49:21;97730.13;;;-4.48;78.78
43814;BME280;29669;55.706;37.656;2024-01-11T11:51:49;97753.97;;;-4.50;78.71
43814;BME280;29669;55.706;37.656;2024-01-11T11:54:21;97777.66;;;-4.51;78.96
43814;BME280;29669;55.706;37.656;2024-01-11T11:57:17;97771.81;;;-4.63;78.65
43814;BME280;29669;55.706;37.656;2024-01-11T11:59:49;97776.56;;;-4.69;78.88
43814;BME280;29669;55.706;37.656;2024-01-11T12:02:17;97781.50;;;-4.79;78.61
43814;BME280;29669;55.706;37.656;2024-01-11T12:04:48;97796.00;;;-4.92;78.43
43814;BME280;29669;55.706;37.656;2024-01-11T12:07:16;97798.97;;;-5.09;78.23
43814;BME280;29669;55.706;37.656;2024-01-11T12:09:46;97793.09;;;-5.21;78.21
43814;BME280;29669;55.706;37.656;2024-01-11T12:12:14;97800.91;;;-5.24;78.44
43814;BME280;29669;55.706;37.656;2024-01-11T12:14:43;97811.47;;;-5.30;78.31
43814;BME280;29669;55.706;37.656;2024-01-11T12:17:11;97814.09;;;-5.31;78.31
43814;BME280;29669;55.706;37.656;2024-01-11T12:19:39;97815.03;;;-5.32;78.34
43814;BME280;29669;55.706;37.656;2024-01-11T12:22:06;97819.16;;;-5.31;78.48
43814;BME280;29669;55.706;37.656;2024-01-11T12:24:34;97826.53;;;-5.28;78.67
43814;BME280;29669;55.706;37.656;2024-01-11T12:27:02;97820.09;;;-5.32;78.35
43814;BME280;29669;55.706;37.656;2024-01-11T12:29:30;97817.78;;;-5.35;78.67
43814;BME280;29669;55.706;37.656;2024-01-11T12:32:10;97826.06;;;-5.33;78.57
43814;BME280;29669;55.706;37.656;2024-01-11T12:34:43;97829.72;;;-5.37;78.39
43814;BME280;29669;55.706;37.656;2024-01-11T12:37:12;97828.22;;;-5.51;78.15
43814;BME280;29669;55.706;37.656;2024-01-11T12:39:39;97837.94;;;-5.57;78.12
43814;BME280;29669;55.706;37.656;2024-01-11T12:42:07;97839.78;;;-5.59;78.47
43814;BME280;29669;55.706;37.656;2024-01-11T12:44:34;97848.00;;;-5.68;78.27
43814;BME280;29669;55.706;37.656;2024-01-11T12:47:05;97866.13;;;-5.75;78.26
43814;BME280;29669;55.706;37.656;2024-01-11T12:49:33;97857.72;;;-5.86;78.05
43814;BME280;29669;55.706;37.656;2024-01-11T12:52:00;97863.53;;;-5.97;78.00
43814;BME280;29669;55.706;37.656;2024-01-11T12:54:32;97893.72;;;-5.95;78.26
43814;BME280;29669;55.706;37.656;2024-01-11T12:57:00;97883.03;;;-5.99;78.25
43814;BME280;29669;55.706;37.656;2024-01-11T12:59:29;97900.84;;;-6.13;77.78
43814;BME280;29669;55.706;37.656;2024-01-11T13:01:56;97921.38;;;-6.30;77.66
43814;BME280;29669;55.706;37.656;2024-01-11T13:04:26;97929.91;;;-6.43;77.82
43814;BME280;29669;55.706;37.656;2024-01-11T13:06:55;97898.44;;;-6.63;77.23
43814;BME280;29669;55.706;37.656;2024-01-11T13:09:23;97912.94;;;-6.79;77.43
43814;BME280;29669;55.706;37.656;2024-01-11T13:11:50;97917.72;;;-6.87;77.59
43814;BME280;29669;55.706;37.656;2024-01-11T13:14:18;97925.69;;;-6.93;77.42
43814;BME280;29669;55.706;37.656;2024-01-11T13:16:47;97919.09;;;-6.96;77.62
43814;BME280;29669;55.706;37.656;2024-01-11T13:19:16;97920.03;;;-6.97;77.55
43814;BME280;29669;55.706;37.656;2024-01-11T13:21:53;97924.66;;;-7.03;77.29
43814;BME280;29669;55.706;37.656;2024-01-11T13:24:21;97926.34;;;-7.04;77.31
43814;BME280;29669;55.706;37.656;2024-01-11T13:26:48;97936.75;;;-7.08;77.01
43814;BME280;29669;55.706;37.656;2024-01-11T13:29:16;97940.09;;;-7.08;77.05
43814;BME280;29669;55.706;37.656;2024-01-11T13:31:44;97937.25;;;-7.03;77.38
43814;BME280;29669;55.706;37.656;2024-01-11T13:34:11;97948.16;;;-7.03;77.44
43814;BME280;29669;55.706;37.656;2024-01-11T13:36:39;97934.22;;;-6.96;77.20
43814;BME280;29669;55.706;37.656;2024-01-11T13:39:07;97945.13;;;-6.95;77.30
43814;BME280;29669;55.706;37.656;2024-01-11T13:41:38;97940.59;;;-6.90;77.30
43814;BME280;29669;55.706;37.656;2024-01-11T13:44:08;97960.66;;;-6.89;77.24
43814;BME280;29669;55.706;37.656;2024-01-11T13:46:37;97933.41;;;-6.96;77.11
43814;BME280;29669;55.706;37.656;2024-01-11T13:49:04;97950.19;;;-6.95;77.25
43814;BME280;29669;55.706;37.656;2024-01-11T13:51:33;97943.44;;;-6.95;77.32
43814;BME280;29669;55.706;37.656;2024-01-11T13:54:19;97943.13;;;-6.90;77.40
43814;BME280;29669;55.706;37.656;2024-01-11T13:56:50;97949.88;;;-6.91;77.18
43814;BME280;29669;55.706;37.656;2024-01-11T13:59:19;97958.63;;;-6.96;76.72
43814;BME280;29669;55.706;37.656;2024-01-11T14:01:50;97946.34;;;-7.01;76.83
43814;BME280;29669;55.706;37.656;2024-01-11T14:04:18;97961.97;;;-6.96;76.86
43814;BME280;29669;55.706;37.656;2024-01-11T14:06:46;97956.81;;;-6.94;77.05
43814;BME280;29669;55.706;37.656;2024-01-11T14:09:13;97963.28;;;-6.90;76.92
43814;BME280;29669;55.706;37.656;2024-01-11T14:11:41;97962.78;;;-6.95;76.58
43814;BME280;29669;55.706;37.656;2024-01-11T14:14:09;97991.22;;;-6.93;76.93
43814;BME280;29669;55.706;37.656;2024-01-11T14:16:37;97975.41;;;-6.95;76.70
43814;BME280;29669;55.706;37.656;2024-01-11T14:19:05;97985.28;;;-6.92;76.65
43814;BME280;29669;55.706;37.656;2024-01-11T14:21:32;97982.84;;;-6.94;76.82
43814;BME280;29669;55.706;37.656;2024-01-11T14:24:00;97977.19;;;-6.97;76.92
43814;BME280;29669;55.706;37.656;2024-01-11T14:26:28;97970.03;;;-7.03;76.90
43814;BME280;29669;55.706;37.656;2024-01-11T14:28:56;97978.31;;;-7.01;76.72